sensor_id;sensor_type;location;lat;lon;timestamp;pressure;altitude;pressure_sealevel;temperature;humidity
70468;BME280;57934;51.532;7.684;2023-02-02T00:00:45;100714.91;;;4.01;100.00
70468;BME280;57934;51.532;7.684;2023-02-02T00:03:11;100720.13;;;4.01;100.00
70468;BME280;57934;51.532;7.684;2023-02-02T00:05:37;100718.06;;;4.05;100.00
70468;BME280;57934;51.532;7.684;2023-02-02T00:08:03;100717.63;;;4.10;100.00
70468;BME280;57934;51.532;7.684;2023-02-02T00:10:29;100725.75;;;4.06;100.00
70468;BME280;57934;51.532;7.684;2023-02-02T00:12:55;100718.44;;;4.10;100.00
70468;BME280;57934;51.532;7.684;2023-02-02T00:15:23;100731.22;;;4.13;100.00
70468;BME280;57934;51.532;7.684;2023-02-02T00:17:49;100728.63;;;4.13;100.00
70468;BME280;57934;51.532;7.684;2023-02-02T00:20:15;100716.25;;;4.15;100.00
70468;BME280;57934;51.532;7.684;2023-02-02T00:22:41;100719.97;;;4.13;100.00
70468;BME280;57934;51.532;7.684;2023-02-02T00:25:07;100714.31;;;4.17;100.00
70468;BME280;57934;51.532;7.684;2023-02-02T00:27:34;100715.44;;;4.15;100.00
70468;BME280;57934;51.532;7.684;2023-02-02T00:30:00;100711.31;;;4.12;100.00
70468;BME280;57934;51.532;7.684;2023-02-02T00:32:26;100716.66;;;4.11;100.00
70468;BME280;57934;51.532;7.684;2023-02-02T00:34:52;100717.22;;;4.14;100.00
70468;BME280;57934;51.532;7.684;2023-02-02T00:37:18;100716.94;;;4.17;100.00
70468;BME280;57934;51.532;7.684;2023-02-02T00:39:44;100725.59;;;4.18;100.00
70468;BME280;57934;51.532;7.684;2023-02-02T00:42:10;100717.22;;;4.14;100.00
70468;BME280;57934;51.532;7.684;2023-02-02T00:44:36;100723.41;;;4.13;100.00
70468;BME280;57934;51.532;7.684;2023-02-02T00:47:20;100722.56;;;4.13;100.00
70468;BME280;57934;51.532;7.684;2023-02-02T00:49:47;100719.97;;;4.13;100.00
70468;BME280;57934;51.532;7.684;2023-02-02T00:52:13;100712.41;;;4.10;100.00
70468;BME280;57934;51.532;7.684;2023-02-02T00:54:39;100716.66;;;4.11;100.00
70468;BME280;57934;51.532;7.684;2023-02-02T00:57:05;100719.97;;;4.13;100.00
70468;BME280;57934;51.532;7.684;2023-02-02T00:59:32;100723.00;;;4.18;100.00
70468;BME280;57934;51.532;7.684;2023-02-02T01:01:58;100718.88;;;4.15;100.00
70468;BME280;57934;51.532;7.684;2023-02-02T01:04:25;100727.38;;;4.17;100.00
70468;BME280;57934;51.532;7.684;2023-02-02T01:06:51;100722.16;;;4.17;100.00
70468;BME280;57934;51.532;7.684;2023-02-02T01:09:17;100724.22;;;4.14;100.00
70468;BME280;57934;51.532;7.684;2023-02-02T01:11:43;100729.97;;;4.17;100.00
70468;BME280;57934;51.532;7.684;2023-02-02T01:14:09;100729.03;;;4.18;100.00
70468;BME280;57934;51.532;7.684;2023-02-02T01:16:35;100727.91;;;4.21;100.00
70468;BME280;57934;51.532;7.684;2023-02-02T01:19:01;100737.97;;;4.16;100.00
70468;BME280;57934;51.532;7.684;2023-02-02T01:21:27;100732.31;;;4.20;100.00
70468;BME280;57934;51.532;7.684;2023-02-02T01:23:53;100731.38;;;4.21;100.00
70468;BME280;57934;51.532;7.684;2023-02-02T01:26:19;100729.56;;;4.22;100.00
70468;BME280;57934;51.532;7.684;2023-02-02T01:28:45;100738.75;;;4.26;100.00
70468;BME280;57934;51.532;7.684;2023-02-02T01:31:14;100732.72;;;4.25;100.00
70468;BME280;57934;51.532;7.684;2023-02-02T01:33:41;100731.91;;;4.25;100.00
70468;BME280;57934;51.532;7.684;2023-02-02T01:36:14;100730.94;;;4.26;100.00
70468;BME280;57934;51.532;7.684;2023-02-02T01:38:40;100744.41;;;4.21;100.00
70468;BME280;57934;51.532;7.684;2023-02-02T01:41:08;100733.56;;;4.16;100.00
70468;BME280;57934;51.532;7.684;2023-02-02T01:46:13;100738.78;;;4.16;100.00
70468;BME280;57934;51.532;7.684;2023-02-02T01:48:43;100745.50;;;4.19;100.00
70468;BME280;57934;51.532;7.684;2023-02-02T01:51:15;100748.94;;;4.19;100.00
70468;BME280;57934;51.532;7.684;2023-02-02T01:53:43;100755.94;;;4.19;100.00
70468;BME280;57934;51.532;7.684;2023-02-02T01:56:11;100758.13;;;4.23;100.00
70468;BME280;57934;51.532;7.684;2023-02-02T01:58:40;100756.63;;;4.21;100.00
70468;BME280;57934;51.532;7.684;2023-02-02T02:01:08;100770.34;;;4.23;100.00
70468;BME280;57934;51.532;7.684;2023-02-02T02:03:35;100770.75;;;4.28;100.00
70468;BME280;57934;51.532;7.684;2023-02-02T02:06:06;100766.75;;;4.34;100.00
70468;BME280;57934;51.532;7.684;2023-02-02T02:08:37;100770.88;;;4.36;100.00
70468;BME280;57934;51.532;7.684;2023-02-02T02:11:04;100770.63;;;4.39;100.00
70468;BME280;57934;51.532;7.684;2023-02-02T02:13:32;100759.47;;;4.37;100.00
70468;BME280;57934;51.532;7.684;2023-02-02T02:16:47;100754.34;;;4.45;100.00
70468;BME280;57934;51.532;7.684;2023-02-02T02:22:15;100752.28;;;4.49;100.00
70468;BME280;57934;51.532;7.684;2023-02-02T02:31:07;100757.22;;;4.62;100.00
70468;BME280;57934;51.532;7.684;2023-02-02T02:39:01;100758.56;;;4.66;100.00
70468;BME280;57934;51.532;7.684;2023-02-02T02:41:33;100749.63;;;4.68;100.00
70468;BME280;57934;51.532;7.684;2023-02-02T02:44:09;100743.44;;;4.69;100.00
70468;BME280;57934;51.532;7.684;2023-02-02T02:46:37;100754.41;;;4.73;100.00
70468;BME280;57934;51.532;7.684;2023-02-02T02:49:07;100743.69;;;4.76;100.00
70468;BME280;57934;51.532;7.684;2023-02-02T02:51:48;100756.47;;;4.79;100.00
70468;BME280;57934;51.532;7.684;2023-02-02T02:54:33;100746.00;;;4.79;100.00
70468;BME280;57934;51.532;7.684;2023-02-02T02:57:31;100750.13;;;4.82;100.00
70468;BME280;57934;51.532;7.684;2023-02-02T03:03:18;100748.34;;;4.82;100.00
70468;BME280;57934;51.532;7.684;2023-02-02T03:05:51;100750.25;;;4.80;100.00
70468;BME280;57934;51.532;7.684;2023-02-02T03:08:23;100759.31;;;4.86;100.00
70468;BME280;57934;51.532;7.684;2023-02-02T03:10:52;100765.91;;;4.90;100.00
70468;BME280;57934;51.532;7.684;2023-02-02T03:13:20;100762.31;;;4.91;100.00
70468;BME280;57934;51.532;7.684;2023-02-02T03:15:46;100755.44;;;4.90;100.00
70468;BME280;57934;51.532;7.684;2023-02-02T03:18:14;100755.28;;;4.91;100.00
70468;BME280;57934;51.532;7.684;2023-02-02T03:20:42;100751.72;;;4.92;100.00
70468;BME280;57934;51.532;7.684;2023-02-02T03:23:09;100749.78;;;4.94;100.00
70468;BME280;57934;51.532;7.684;2023-02-02T03:25:36;100751.28;;;4.97;100.00
70468;BME280;57934;51.532;7.684;2023-02-02T03:28:03;100751.44;;;4.95;100.00
70468;BME280;57934;51.532;7.684;2023-02-02T03:30:29;100748.81;;;4.95;100.00
70468;BME280;57934;51.532;7.684;2023-02-02T03:32:55;100744.41;;;4.96;100.00
70468;BME280;57934;51.532;7.684;2023-02-02T03:35:21;100744.53;;;4.94;100.00
70468;BME280;57934;51.532;7.684;2023-02-02T03:37:47;100749.91;;;5.02;100.00
70468;BME280;57934;51.532;7.684;2023-02-02T03:40:14;100750.72;;;5.03;100.00
70468;BME280;57934;51.532;7.684;2023-02-02T03:42:40;100751.81;;;5.00;100.00
70468;BME280;57934;51.532;7.684;2023-02-02T03:45:07;100757.44;;;5.06;100.00
70468;BME280;57934;51.532;7.684;2023-02-02T03:47:33;100749.06;;;5.02;100.00
70468;BME280;57934;51.532;7.684;2023-02-02T03:49:59;100750.19;;;4.99;100.00
70468;BME280;57934;51.532;7.684;2023-02-02T03:52:25;100752.63;;;5.01;100.00
70468;BME280;57934;51.532;7.684;2023-02-02T03:54:51;100752.50;;;5.02;100.00
70468;BME280;57934;51.532;7.684;2023-02-02T03:57:17;100754.16;;;5.03;100.00
70468;BME280;57934;51.532;7.684;2023-02-02T03:59:43;100747.81;;;5.06;100.00
70468;BME280;57934;51.532;7.684;2023-02-02T04:02:09;100746.59;;;5.00;100.00
70468;BME280;57934;51.532;7.684;2023-02-02T04:04:35;100749.38;;;4.99;100.00
70468;BME280;57934;51.532;7.684;2023-02-02T04:07:01;100745.94;;;4.98;100.00
70468;BME280;57934;51.532;7.684;2023-02-02T04:09:27;100754.72;;;4.97;100.00
70468;BME280;57934;51.532;7.684;2023-02-02T04:11:53;100753.38;;;4.93;100.00
70468;BME280;57934;51.532;7.684;2023-02-02T04:14:19;100758.22;;;4.88;100.00
70468;BME280;57934;51.532;7.684;2023-02-02T04:16:45;100756.41;;;4.89;100.00
70468;BME280;57934;51.532;7.684;2023-02-02T04:19:11;100758.34;;;4.87;100.00
70468;BME280;57934;51.532;7.684;2023-02-02T04:21:38;100758.50;;;4.85;100.00
70468;BME280;57934;51.532;7.684;2023-02-02T04:24:08;100757.16;;;4.81;100.00
70468;BME280;57934;51.532;7.684;2023-02-02T04:26:34;100756.84;;;4.84;100.00
70468;BME280;57934;51.532;7.684;2023-02-02T04:29:00;100755.63;;;4.78;100.00
70468;BME280;57934;51.532;7.684;2023-02-02T04:31:26;100758.09;;;4.80;100.00
70468;BME280;57934;51.532;7.684;2023-02-02T04:33:55;100749.31;;;4.81;100.00
70468;BME280;57934;51.532;7.684;2023-02-02T04:36:21;100761.69;;;4.79;100.00
70468;BME280;57934;51.532;7.684;2023-02-02T04:38:51;100763.31;;;4.80;100.00
70468;BME280;57934;51.532;7.684;2023-02-02T04:41:18;100764.44;;;4.77;100.00
70468;BME280;57934;51.532;7.684;2023-02-02T04:43:44;100768.00;;;4.76;100.00
70468;BME280;57934;51.532;7.684;2023-02-02T04:46:10;100769.41;;;4.71;100.00
70468;BME280;57934;51.532;7.684;2023-02-02T04:48:36;100774.38;;;4.74;100.00
70468;BME280;57934;51.532;7.684;2023-02-02T04:51:05;100772.69;;;4.73;100.00
70468;BME280;57934;51.532;7.684;2023-02-02T04:53:31;100762.53;;;4.70;100.00
70468;BME280;57934;51.532;7.684;2023-02-02T04:56:07;100760.06;;;4.68;100.00
70468;BME280;57934;51.532;7.684;2023-02-02T04:58:33;100755.38;;;4.72;100.00
70468;BME280;57934;51.532;7.684;2023-02-02T05:00:59;100756.06;;;4.74;100.00
70468;BME280;57934;51.532;7.684;2023-02-02T05:03:25;100755.91;;;4.75;100.00
70468;BME280;57934;51.532;7.684;2023-02-02T05:06:00;100762.78;;;4.76;100.00
70468;BME280;57934;51.532;7.684;2023-02-02T05:08:26;100761.69;;;4.79;100.00
70468;BME280;57934;51.532;7.684;2023-02-02T05:10:52;100759.06;;;4.79;100.00
70468;BME280;57934;51.532;7.684;2023-02-02T05:13:18;100756.84;;;4.84;100.00
70468;BME280;57934;51.532;7.684;2023-02-02T05:15:44;100760.81;;;4.88;100.00
70468;BME280;57934;51.532;7.684;2023-02-02T05:18:10;100758.06;;;4.90;100.00
70468;BME280;57934;51.532;7.684;2023-02-02T05:20:36;100760.50;;;4.91;100.00
70468;BME280;57934;51.532;7.684;2023-02-02T05:23:02;100758.22;;;4.88;100.00
70468;BME280;57934;51.532;7.684;2023-02-02T05:25:28;100756.66;;;4.95;100.00
70468;BME280;57934;51.532;7.684;2023-02-02T05:27:54;100753.78;;;4.98;100.00
70468;BME280;57934;51.532;7.684;2023-02-02T05:30:20;100755.69;;;4.96;100.00
70468;BME280;57934;51.532;7.684;2023-02-02T05:32:46;100758.03;;;4.99;100.00
70468;BME280;57934;51.532;7.684;2023-02-02T05:35:12;100752.50;;;5.02;100.00
70468;BME280;57934;51.532;7.684;2023-02-02T05:37:38;100745.84;;;5.08;100.00
70468;BME280;57934;51.532;7.684;2023-02-02T05:40:04;100751.09;;;5.08;100.00
70468;BME280;57934;51.532;7.684;2023-02-02T05:42:30;100745.81;;;5.18;100.00
70468;BME280;57934;51.532;7.684;2023-02-02T05:44:56;100733.84;;;5.15;100.00
70468;BME280;57934;51.532;7.684;2023-02-02T05:47:22;100748.41;;;5.18;100.00
70468;BME280;57934;51.532;7.684;2023-02-02T05:49:48;100740.13;;;5.22;100.00
70468;BME280;57934;51.532;7.684;2023-02-02T05:52:17;100746.88;;;5.25;100.00
70468;BME280;57934;51.532;7.684;2023-02-02T05:54:44;100753.88;;;5.24;100.00
70468;BME280;57934;51.532;7.684;2023-02-02T05:57:10;100747.16;;;5.22;100.00
70468;BME280;57934;51.532;7.684;2023-02-02T05:59:36;100743.28;;;5.26;100.00
70468;BME280;57934;51.532;7.684;2023-02-02T06:02:02;100757.72;;;5.30;100.00
70468;BME280;57934;51.532;7.684;2023-02-02T06:04:28;100746.94;;;5.33;100.00
70468;BME280;57934;51.532;7.684;2023-02-02T06:06:54;100750.09;;;5.37;100.00
70468;BME280;57934;51.532;7.684;2023-02-02T06:09:20;100745.19;;;5.34;100.00
70468;BME280;57934;51.532;7.684;2023-02-02T06:11:48;100755.19;;;5.38;100.00
70468;BME280;57934;51.532;7.684;2023-02-02T06:14:14;100760.41;;;5.38;100.00
70468;BME280;57934;51.532;7.684;2023-02-02T06:16:40;100770.19;;;5.36;100.00
70468;BME280;57934;51.532;7.684;2023-02-02T06:19:06;100760.25;;;5.40;100.00
70468;BME280;57934;51.532;7.684;2023-02-02T06:21:32;100763.69;;;5.40;100.00
70468;BME280;57934;51.532;7.684;2023-02-02T06:23:58;100771.69;;;5.39;100.00
70468;BME280;57934;51.532;7.684;2023-02-02T06:26:24;100769.59;;;5.42;100.00
70468;BME280;57934;51.532;7.684;2023-02-02T06:28:52;100770.41;;;5.43;100.00
70468;BME280;57934;51.532;7.684;2023-02-02T06:31:18;100768.91;;;5.40;100.00
70468;BME280;57934;51.532;7.684;2023-02-02T06:33:53;100766.28;;;5.40;100.00
70468;BME280;57934;51.532;7.684;2023-02-02T06:36:19;100770.28;;;5.44;100.00
70468;BME280;57934;51.532;7.684;2023-02-02T06:38:49;100781.84;;;5.42;100.00
70468;BME280;57934;51.532;7.684;2023-02-02T06:41:16;100776.47;;;5.43;100.00
70468;BME280;57934;51.532;7.684;2023-02-02T06:43:42;100778.78;;;5.46;100.00
70468;BME280;57934;51.532;7.684;2023-02-02T06:46:08;100788.97;;;5.49;100.00
70468;BME280;57934;51.532;7.684;2023-02-02T06:48:34;100786.63;;;5.46;100.00
70468;BME280;57934;51.532;7.684;2023-02-02T06:51:00;100795.16;;;5.48;100.00
70468;BME280;57934;51.532;7.684;2023-02-02T06:53:26;100788.97;;;5.49;100.00
70468;BME280;57934;51.532;7.684;2023-02-02T06:55:53;100796.28;;;5.46;100.00
70468;BME280;57934;51.532;7.684;2023-02-02T06:58:20;100796.00;;;5.49;100.00
70468;BME280;57934;51.532;7.684;2023-02-02T07:00:46;100805.47;;;5.50;100.00
70468;BME280;57934;51.532;7.684;2023-02-02T07:03:13;100797.91;;;5.47;100.00
70468;BME280;57934;51.532;7.684;2023-02-02T07:05:39;100805.19;;;5.53;100.00
70468;BME280;57934;51.532;7.684;2023-02-02T07:08:05;100806.00;;;5.54;100.00
70468;BME280;57934;51.532;7.684;2023-02-02T07:10:31;100806.16;;;5.52;100.00
70468;BME280;57934;51.532;7.684;2023-02-02T07:12:57;100805.19;;;5.53;100.00
70468;BME280;57934;51.532;7.684;2023-02-02T07:15:23;100801.47;;;5.56;100.00
70468;BME280;57934;51.532;7.684;2023-02-02T07:17:49;100811.91;;;5.56;100.00
70468;BME280;57934;51.532;7.684;2023-02-02T07:20:15;100808.03;;;5.60;100.00
70468;BME280;57934;51.532;7.684;2023-02-02T07:22:41;100817.38;;;5.62;100.00
70468;BME280;57934;51.532;7.684;2023-02-02T07:25:07;100811.47;;;5.60;100.00
70468;BME280;57934;51.532;7.684;2023-02-02T07:27:33;100820.75;;;5.55;100.00
70468;BME280;57934;51.532;7.684;2023-02-02T07:29:59;100815.66;;;5.53;100.00
70468;BME280;57934;51.532;7.684;2023-02-02T07:32:25;100812.56;;;5.58;100.00
70468;BME280;57934;51.532;7.684;2023-02-02T07:34:51;100811.34;;;5.62;100.00
70468;BME280;57934;51.532;7.684;2023-02-02T07:37:17;100819.84;;;5.64;100.00
70468;BME280;57934;51.532;7.684;2023-02-02T07:39:43;100828.66;;;5.63;100.00
70468;BME280;57934;51.532;7.684;2023-02-02T07:42:10;100815.59;;;5.63;100.00
70468;BME280;57934;51.532;7.684;2023-02-02T07:44:37;100820.66;;;5.64;100.00
70468;BME280;57934;51.532;7.684;2023-02-02T07:47:03;100819.31;;;5.60;100.00
70468;BME280;57934;51.532;7.684;2023-02-02T07:49:29;100817.09;;;5.65;100.00
70468;BME280;57934;51.532;7.684;2023-02-02T07:51:55;100818.19;;;5.63;100.00
70468;BME280;57934;51.532;7.684;2023-02-02T07:54:21;100824.53;;;5.60;100.00
70468;BME280;57934;51.532;7.684;2023-02-02T07:56:47;100820.00;;;5.62;100.00
70468;BME280;57934;51.532;7.684;2023-02-02T07:59:13;100823.44;;;5.63;100.00
70468;BME280;57934;51.532;7.684;2023-02-02T08:01:39;100828.50;;;5.64;100.00
70468;BME280;57934;51.532;7.684;2023-02-02T08:04:05;100829.66;;;5.62;100.00
70468;BME280;57934;51.532;7.684;2023-02-02T08:06:33;100826.88;;;5.63;100.00
70468;BME280;57934;51.532;7.684;2023-02-02T08:09:01;100833.09;;;5.62;100.00
70468;BME280;57934;51.532;7.684;2023-02-02T08:11:28;100829.72;;;5.70;100.00
70468;BME280;57934;51.532;7.684;2023-02-02T08:13:56;100842.28;;;5.66;100.00
70468;BME280;57934;51.532;7.684;2023-02-02T08:16:22;100835.94;;;5.69;100.00
70468;BME280;57934;51.532;7.684;2023-02-02T08:18:49;100840.03;;;5.71;100.00
70468;BME280;57934;51.532;7.684;2023-02-02T08:21:16;100838.56;;;5.69;100.00
70468;BME280;57934;51.532;7.684;2023-02-02T08:23:43;100840.47;;;5.67;100.00
70468;BME280;57934;51.532;7.684;2023-02-02T08:26:14;100839.75;;;5.74;100.00
70468;BME280;57934;51.532;7.684;2023-02-02T08:28:41;100848.69;;;5.72;100.00
70468;BME280;57934;51.532;7.684;2023-02-02T08:31:26;100853.09;;;5.71;100.00
70468;BME280;57934;51.532;7.684;2023-02-02T08:33:52;100863.81;;;5.78;100.00
70468;BME280;57934;51.532;7.684;2023-02-02T08:36:21;100857.91;;;5.76;100.00
70468;BME280;57934;51.532;7.684;2023-02-02T08:38:48;100862.31;;;5.75;100.00
70468;BME280;57934;51.532;7.684;2023-02-02T08:41:16;100867.41;;;5.77;100.00
70468;BME280;57934;51.532;7.684;2023-02-02T08:43:43;100863.16;;;5.76;100.00
70468;BME280;57934;51.532;7.684;2023-02-02T08:46:10;100871.53;;;5.80;100.00
70468;BME280;57934;51.532;7.684;2023-02-02T08:48:37;100868.53;;;5.74;100.00
70468;BME280;57934;51.532;7.684;2023-02-02T08:51:05;100879.22;;;5.81;100.00
70468;BME280;57934;51.532;7.684;2023-02-02T08:53:32;100877.28;;;5.83;100.00
70468;BME280;57934;51.532;7.684;2023-02-02T08:56:04;100878.94;;;5.84;100.00
70468;BME280;57934;51.532;7.684;2023-02-02T08:58:31;100880.84;;;5.82;100.00
70468;BME280;57934;51.532;7.684;2023-02-02T09:01:13;100884.16;;;5.84;100.00
70468;BME280;57934;51.532;7.684;2023-02-02T09:03:39;100879.09;;;5.83;100.00
70468;BME280;57934;51.532;7.684;2023-02-02T09:06:07;100891.72;;;5.87;100.00
70468;BME280;57934;51.532;7.684;2023-02-02T09:08:33;100894.06;;;5.90;100.00
70468;BME280;57934;51.532;7.684;2023-02-02T09:11:07;100903.53;;;5.91;100.00
70468;BME280;57934;51.532;7.684;2023-02-02T09:13:34;100897.75;;;5.97;100.00
70468;BME280;57934;51.532;7.684;2023-02-02T09:16:02;100899.69;;;5.95;100.00
70468;BME280;57934;51.532;7.684;2023-02-02T09:18:28;100909.41;;;6.03;100.00
70468;BME280;57934;51.532;7.684;2023-02-02T09:20:58;100910.16;;;5.95;100.00
70468;BME280;57934;51.532;7.684;2023-02-02T09:23:24;100908.34;;;5.96;100.00
70468;BME280;57934;51.532;7.684;2023-02-02T09:25:50;100916.91;;;5.98;100.00
70468;BME280;57934;51.532;7.684;2023-02-02T09:28:16;100916.91;;;5.98;100.00
70468;BME280;57934;51.532;7.684;2023-02-02T09:30:43;100925.19;;;5.93;100.00
70468;BME280;57934;51.532;7.684;2023-02-02T09:33:09;100921.84;;;5.91;100.00
70468;BME280;57934;51.532;7.684;2023-02-02T09:35:35;100931.50;;;6.01;100.00
70468;BME280;57934;51.532;7.684;2023-02-02T09:38:00;100927.59;;;6.05;100.00
70468;BME280;57934;51.532;7.684;2023-02-02T09:40:26;100927.97;;;6.10;100.00
70468;BME280;57934;51.532;7.684;2023-02-02T09:43:28;100936.81;;;6.09;100.00
70468;BME280;57934;51.532;7.684;2023-02-02T09:46:08;100937.50;;;6.11;100.00
70468;BME280;57934;51.532;7.684;2023-02-02T09:48:53;100935.94;;;6.18;100.00
70468;BME280;57934;51.532;7.684;2023-02-02T09:51:26;100943.91;;;6.16;100.00
70468;BME280;57934;51.532;7.684;2023-02-02T09:53:58;100952.59;;;6.17;100.00
70468;BME280;57934;51.532;7.684;2023-02-02T09:56:33;100943.47;;;6.21;100.00
70468;BME280;57934;51.532;7.684;2023-02-02T09:59:05;100949.69;;;6.20;100.00
70468;BME280;57934;51.532;7.684;2023-02-02T10:01:37;100962.03;;;6.28;100.00
70468;BME280;57934;51.532;7.684;2023-02-02T10:04:21;100972.38;;;6.29;100.00
70468;BME280;57934;51.532;7.684;2023-02-02T10:06:53;100976.34;;;6.33;100.00
70468;BME280;57934;51.532;7.684;2023-02-02T10:09:39;100972.91;;;6.33;100.00
70468;BME280;57934;51.532;7.684;2023-02-02T10:12:35;100969.75;;;6.29;100.00
70468;BME280;57934;51.532;7.684;2023-02-02T10:15:10;100974.28;;;6.27;100.00
70468;BME280;57934;51.532;7.684;2023-02-02T10:17:47;100981.63;;;6.24;100.00
70468;BME280;57934;51.532;7.684;2023-02-02T10:20:35;100989.94;;;6.19;100.00
70468;BME280;57934;51.532;7.684;2023-02-02T10:25:49;100995.38;;;6.08;100.00
70468;BME280;57934;51.532;7.684;2023-02-02T10:28:18;101000.31;;;6.11;100.00
70468;BME280;57934;51.532;7.684;2023-02-02T10:30:46;100991.50;;;6.12;100.00
70468;BME280;57934;51.532;7.684;2023-02-02T10:33:35;101001.97;;;6.12;100.00
70468;BME280;57934;51.532;7.684;2023-02-02T10:36:09;100999.88;;;6.15;100.00
70468;BME280;57934;51.532;7.684;2023-02-02T10:38:47;100992.31;;;6.12;100.00
70468;BME280;57934;51.532;7.684;2023-02-02T10:44:15;101008.19;;;6.11;100.00
70468;BME280;57934;51.532;7.684;2023-02-02T10:46:46;101011.47;;;6.13;100.00
70468;BME280;57934;51.532;7.684;2023-02-02T10:49:22;101007.56;;;6.17;100.00
70468;BME280;57934;51.532;7.684;2023-02-02T10:52:09;101009.91;;;6.20;100.00
70468;BME280;57934;51.532;7.684;2023-02-02T10:54:49;101011.53;;;6.21;100.00
70468;BME280;57934;51.532;7.684;2023-02-02T10:57:25;101005.72;;;6.27;100.00
70468;BME280;57934;51.532;7.684;2023-02-02T11:00:54;101014.56;;;6.26;100.00
70468;BME280;57934;51.532;7.684;2023-02-02T11:02:54;101006.00;;;6.24;100.00
70468;BME280;57934;51.532;7.684;2023-02-02T11:05:26;101022.88;;;6.21;100.00
70468;BME280;57934;51.532;7.684;2023-02-02T11:08:24;101020.53;;;6.18;100.00
70468;BME280;57934;51.532;7.684;2023-02-02T11:10:54;101016.94;;;6.19;100.00
70468;BME280;57934;51.532;7.684;2023-02-02T11:13:27;101022.34;;;6.18;100.00
70468;BME280;57934;51.532;7.684;2023-02-02T11:18:42;101028.50;;;6.17;100.00
70468;BME280;57934;51.532;7.684;2023-02-02T11:21:29;101023.28;;;6.17;100.00
70468;BME280;57934;51.532;7.684;2023-02-02T11:23:59;101033.63;;;6.18;100.00
70468;BME280;57934;51.532;7.684;2023-02-02T11:26:40;101031.38;;;6.24;100.00
70468;BME280;57934;51.532;7.684;2023-02-02T11:29:13;101024.78;;;6.19;100.00
70468;BME280;57934;51.532;7.684;2023-02-02T11:31:40;101019.25;;;6.22;100.00
70468;BME280;57934;51.532;7.684;2023-02-02T11:34:16;101019.94;;;6.25;100.00
70468;BME280;57934;51.532;7.684;2023-02-02T11:39:28;101021.31;;;6.29;100.00
70468;BME280;57934;51.532;7.684;2023-02-02T11:42:06;101018.38;;;6.32;100.00
70468;BME280;57934;51.532;7.684;2023-02-02T11:44:33;101026.09;;;6.33;100.00
70468;BME280;57934;51.532;7.684;2023-02-02T11:47:02;101025.28;;;6.33;100.00
70468;BME280;57934;51.532;7.684;2023-02-02T11:49:32;101015.97;;;6.38;100.00
70468;BME280;57934;51.532;7.684;2023-02-02T11:52:05;101035.59;;;6.34;100.00
70468;BME280;57934;51.532;7.684;2023-02-02T11:54:34;101023.59;;;6.32;100.00
70468;BME280;57934;51.532;7.684;2023-02-02T11:57:06;101023.19;;;6.36;100.00
70468;BME280;57934;51.532;7.684;2023-02-02T11:59:38;101027.59;;;6.36;100.00
70468;BME280;57934;51.532;7.684;2023-02-02T12:02:23;101020.81;;;6.43;100.00
70468;BME280;57934;51.532;7.684;2023-02-02T12:04:52;101029.47;;;6.43;100.00
70468;BME280;57934;51.532;7.684;2023-02-02T12:09:48;101027.06;;;6.32;100.00
70468;BME280;57934;51.532;7.684;2023-02-02T12:15:12;101025.66;;;6.38;100.00
70468;BME280;57934;51.532;7.684;2023-02-02T12:17:45;101027.16;;;6.40;100.00
70468;BME280;57934;51.532;7.684;2023-02-02T12:20:27;101035.59;;;6.34;100.00
70468;BME280;57934;51.532;7.684;2023-02-02T12:23:08;101036.41;;;6.35;100.00
70468;BME280;57934;51.532;7.684;2023-02-02T12:26:06;101039.88;;;6.35;100.00
70468;BME280;57934;51.532;7.684;2023-02-02T12:37:22;101045.97;;;6.26;100.00
70468;BME280;57934;51.532;7.684;2023-02-02T12:43:14;101044.44;;;6.33;100.00
70468;BME280;57934;51.532;7.684;2023-02-02T12:46:05;101045.41;;;6.32;100.00
70468;BME280;57934;51.532;7.684;2023-02-02T12:51:31;101049.50;;;6.35;100.00
70468;BME280;57934;51.532;7.684;2023-02-02T12:54:31;101042.63;;;6.34;100.00
70468;BME280;57934;51.532;7.684;2023-02-02T12:57:27;101042.34;;;6.37;100.00
70468;BME280;57934;51.532;7.684;2023-02-02T13:11:05;101038.59;;;6.39;100.00
70468;BME280;57934;51.532;7.684;2023-02-02T13:13:36;101046.47;;;6.39;100.00
70468;BME280;57934;51.532;7.684;2023-02-02T13:16:10;101046.06;;;6.34;100.00
70468;BME280;57934;51.532;7.684;2023-02-02T13:18:51;101051.84;;;6.38;100.00
70468;BME280;57934;51.532;7.684;2023-02-02T13:21:21;101043.97;;;6.38;100.00
70468;BME280;57934;51.532;7.684;2023-02-02T13:23:52;101043.16;;;6.37;100.00
70468;BME280;57934;51.532;7.684;2023-02-02T13:26:26;101043.84;;;6.39;100.00
70468;BME280;57934;51.532;7.684;2023-02-02T13:29:21;101048.41;;;6.37;100.00
70468;BME280;57934;51.532;7.684;2023-02-02T13:31:55;101052.28;;;6.33;100.00
70468;BME280;57934;51.532;7.684;2023-02-02T13:37:26;101058.22;;;6.35;100.00
70468;BME280;57934;51.532;7.684;2023-02-02T13:42:37;101064.56;;;6.33;100.00
70468;BME280;57934;51.532;7.684;2023-02-02T13:45:35;101059.31;;;6.33;100.00
70468;BME280;57934;51.532;7.684;2023-02-02T13:48:20;101060.66;;;6.37;100.00
70468;BME280;57934;51.532;7.684;2023-02-02T13:51:15;101064.84;;;6.30;100.00
70468;BME280;57934;51.532;7.684;2023-02-02T13:56:36;101060.59;;;6.29;100.00
70468;BME280;57934;51.532;7.684;2023-02-02T13:59:13;101064.28;;;6.36;100.00
70468;BME280;57934;51.532;7.684;2023-02-02T14:01:47;101060.28;;;6.32;100.00
70468;BME280;57934;51.532;7.684;2023-02-02T14:04:26;101057.81;;;6.30;100.00
70468;BME280;57934;51.532;7.684;2023-02-02T14:07:04;101069.41;;;6.28;100.00
70468;BME280;57934;51.532;7.684;2023-02-02T14:09:34;101062.06;;;6.31;100.00
70468;BME280;57934;51.532;7.684;2023-02-02T14:12:05;101064.84;;;6.30;100.00
70468;BME280;57934;51.532;7.684;2023-02-02T14:14:34;101074.22;;;6.32;100.00
70468;BME280;57934;51.532;7.684;2023-02-02T14:17:06;101065.38;;;6.33;100.00